Time;durP1;ratioP1;P1;durP2;ratioP2;P2;SDS_P1;SDS_P2;PMS_P1;PMS_P2;Temp;Humidity;BMP_temperature;BMP_pressure;BME280_temperature;BME280_humidity;BME280_pressure;Samples;Min_cycle;Max_cycle;Signal;HPM_P1;HPM_P2
2024/02/13 00:06:41;;;;;;;0.77;0.55;;;;;;;4.51;87.69;100590.53;15855003;28;20059;-54
2024/02/13 00:14:15;;;;;;;2.80;0.47;;;;;;;4.35;87.83;100599.41;15862506;28;20051;-52
2024/02/13 00:21:50;;;;;;;1.25;1.17;;;;;;;4.49;86.92;100611.97;15845047;28;20040;-53
2024/02/13 00:29:23;;;;;;;0.00;0.00;;;;;;;4.63;85.58;100614.91;15829559;28;20401;-53
2024/02/13 00:37:00;;;;;;;0.00;0.00;;;;;;;4.64;86.44;100628.00;15799019;28;20574;-53
2024/02/13 00:44:36;;;;;;;0.35;0.13;;;;;;;4.23;87.27;100633.50;15797061;28;20048;-53
2024/02/13 00:52:12;;;;;;;0.80;0.80;;;;;;;4.60;87.21;100650.63;15782229;28;20044;-53
2024/02/13 00:59:48;;;;;;;1.08;1.08;;;;;;;4.74;86.62;100646.41;15799286;28;20040;-52
2024/02/13 01:07:24;;;;;;;0.60;0.60;;;;;;;4.72;86.23;100656.38;15798567;28;20052;-52
2024/02/13 01:15:00;;;;;;;0.22;0.22;;;;;;;4.63;86.57;100668.06;15795194;28;20048;-52
2024/02/13 01:22:38;;;;;;;0.50;0.50;;;;;;;4.90;86.09;100672.91;15777388;28;20094;-51
2024/02/13 01:30:13;;;;;;;0.08;0.08;;;;;;;4.89;85.96;100691.69;15796690;28;20519;-51
2024/02/13 01:37:49;;;;;;;0.20;0.20;;;;;;;4.80;86.69;100696.22;15798370;28;20117;-49
2024/02/13 01:45:24;;;;;;;0.47;0.47;;;;;;;5.15;86.32;100707.34;15756200;28;20044;-50
2024/02/13 01:52:59;;;;;;;2.35;1.35;;;;;;;4.79;86.85;100713.16;15780678;28;20107;-52
2024/02/13 02:00:33;;;;;;;0.20;0.20;;;;;;;4.76;86.84;100718.84;15848646;28;20104;-53
2024/02/13 02:08:25;;;;;;;0.80;0.80;;;;;;;5.27;85.53;100724.53;15825316;28;20043;-53
2024/02/13 02:16:07;;;;;;;0.20;0.20;;;;;;;4.89;85.75;100735.06;15853597;28;20152;-49
2024/02/13 02:23:41;;;;;;;0.20;0.20;;;;;;;5.21;83.94;100744.72;15841297;28;20062;-52
2024/02/13 02:31:16;;;;;;;0.00;0.00;;;;;;;5.22;83.45;100754.38;15785932;28;20090;-52
2024/02/13 02:38:50;;;;;;;0.65;0.43;;;;;;;5.13;83.44;100752.75;15803041;28;20500;-51
2024/02/13 02:46:25;;;;;;;0.20;0.20;;;;;;;5.09;83.58;100770.91;15821531;28;20047;-53
2024/02/13 02:53:59;;;;;;;0.52;0.52;;;;;;;5.07;83.47;100783.53;15806585;28;20048;-51
2024/02/13 03:01:34;;;;;;;;;;;;;;;5.00;83.32;100798.53;15786735;28;20417;-53
2024/02/13 03:09:10;;;;;;;0.10;0.10;;;;;;;5.30;81.80;100810.19;15799676;28;19920;-51
2024/02/13 03:16:47;;;;;;;0.38;0.38;;;;;;;5.15;82.04;100824.41;15787781;28;20039;-53
2024/02/13 03:24:22;;;;;;;0.10;0.10;;;;;;;5.27;80.39;100839.84;15803911;28;20068;-52
2024/02/13 03:31:57;;;;;;;2.85;1.98;;;;;;;4.87;81.23;100846.13;15806357;28;20060;-51
2024/02/13 03:39:33;;;;;;;0.70;0.57;;;;;;;5.10;80.40;100862.19;15788347;28;20514;-56
2024/02/13 03:47:08;;;;;;;0.00;0.00;;;;;;;4.55;81.97;100873.59;15781685;28;20075;-55
2024/02/13 03:54:45;;;;;;;0.55;0.55;;;;;;;4.73;81.51;100879.53;15786228;22;20044;-72
2024/02/13 04:02:21;;;;;;;0.10;0.10;;;;;;;4.56;81.89;100891.19;15799481;28;20075;-72
2024/02/13 04:09:57;;;;;;;0.00;0.00;;;;;;;4.26;83.77;100904.16;15770362;28;20054;-73
2024/02/13 04:17:33;;;;;;;0.05;0.05;;;;;;;4.41;81.83;100922.94;15705879;28;20079;-72
2024/02/13 04:25:15;;;;;;;;;;;;;;;4.33;82.76;100936.19;15741333;28;20095;-73
2024/02/13 04:32:52;;;;;;;0.00;0.00;;;;;;;4.48;82.15;100942.53;15742339;28;20370;-72
2024/02/13 04:40:25;;;;;;;0.43;0.30;;;;;;;4.83;81.95;100949.34;15733787;28;20498;-72
2024/02/13 04:48:02;;;;;;;0.15;0.15;;;;;;;4.47;83.88;100953.31;15738650;28;20414;-72
2024/02/13 04:55:38;;;;;;;0.47;0.13;;;;;;;4.68;83.15;100952.84;15799473;28;20575;-72
2024/02/13 05:03:17;;;;;;;0.00;0.00;;;;;;;4.52;82.58;100957.16;15760490;28;20396;-71
2024/02/13 05:10:51;;;;;;;0.00;0.00;;;;;;;4.91;82.41;100967.13;15732361;28;20046;-73
2024/02/13 05:18:27;;;;;;;0.10;0.10;;;;;;;4.75;82.68;100969.78;15730871;28;20590;-73
2024/02/13 05:26:01;;;;;;;0.35;0.35;;;;;;;4.48;82.81;100982.41;15713998;28;20576;-73
2024/02/13 05:33:37;;;;;;;0.10;0.10;;;;;;;4.60;82.40;100991.72;15735086;28;20043;-74
2024/02/13 05:41:12;;;;;;;0.47;0.47;;;;;;;4.56;83.08;101000.19;15737346;28;20052;-73
2024/02/13 05:48:49;;;;;;;0.13;0.13;;;;;;;4.42;82.08;101004.31;15746215;28;20040;-73
2024/02/13 05:56:22;;;;;;;0.52;0.30;;;;;;;4.29;82.87;101015.44;15745306;28;20049;-72
2024/02/13 06:04:03;;;;;;;0.00;0.00;;;;;;;4.58;81.70;101020.31;15808489;28;20079;-72
2024/02/13 06:11:37;;;;;;;0.00;0.00;;;;;;;4.47;82.37;101033.88;15829008;28;20040;-72
2024/02/13 06:19:13;;;;;;;1.45;1.27;;;;;;;4.51;82.95;101048.53;15817032;28;20044;-73
2024/02/13 06:26:49;;;;;;;0.00;0.00;;;;;;;4.96;80.67;101046.44;15801427;28;20032;-72
2024/02/13 06:34:23;;;;;;;0.00;0.00;;;;;;;5.24;79.95;101071.69;15793365;28;20044;-73
2024/02/13 06:41:59;;;;;;;0.28;0.28;;;;;;;5.18;80.34;101083.00;15783017;28;20074;-74
2024/02/13 06:49:36;;;;;;;0.10;0.10;;;;;;;5.09;80.71;101081.34;15777673;28;20066;-74
2024/02/13 06:57:09;;;;;;;0.63;0.55;;;;;;;4.80;82.46;101100.41;15799696;28;20101;-72
2024/02/13 07:04:44;;;;;;;0.20;0.20;;;;;;;5.19;80.95;101105.97;15801898;28;20048;-72
2024/02/13 07:12:20;;;;;;;0.15;0.15;;;;;;;4.91;81.75;101115.25;15802667;28;20047;-73
2024/02/13 07:19:59;;;;;;;0.93;0.75;;;;;;;5.18;80.66;101122.94;15805767;28;20059;-72
2024/02/13 07:27:33;;;;;;;0.32;0.32;;;;;;;5.12;80.71;101135.03;15807814;22;20044;-48
2024/02/13 07:35:10;;;;;;;0.15;0.15;;;;;;;5.83;78.28;101138.88;15836093;28;20028;-46
2024/02/13 07:42:44;;;;;;;0.40;0.40;;;;;;;5.77;78.04;101155.50;15800758;28;20377;-49
2024/02/13 07:50:21;;;;;;;0.00;0.00;;;;;;;5.98;78.05;101155.00;15849466;28;20094;-52
2024/02/13 07:58:01;;;;;;;0.13;0.13;;;;;;;6.11;77.83;101154.50;15862164;28;20576;-48
2024/02/13 08:05:39;;;;;;;1.17;0.35;;;;;;;6.09;77.27;101157.31;15860248;28;20046;-47
2024/02/13 08:13:13;;;;;;;0.20;0.20;;;;;;;5.66;79.24;101171.00;15847457;28;20057;-48
2024/02/13 08:20:48;;;;;;;0.45;0.30;;;;;;;5.80;78.79;101171.16;15835082;28;20039;-49
2024/02/13 08:28:23;;;;;;;0.00;0.00;;;;;;;6.23;76.25;101178.94;15782850;28;20560;-51
2024/02/13 08:35:58;;;;;;;0.85;0.85;;;;;;;6.52;76.05;101178.31;15781779;28;20554;-51
2024/02/13 08:43:35;;;;;;;0.20;0.20;;;;;;;6.46;75.07;101179.84;15782953;28;20147;-48
2024/02/13 08:51:11;;;;;;;0.30;0.30;;;;;;;6.27;73.76;101182.91;15797210;28;20048;-49
2024/02/13 08:58:45;;;;;;;0.65;0.65;;;;;;;6.33;73.48;101183.06;15797239;28;20059;-52
2024/02/13 09:06:20;;;;;;;0.95;0.45;;;;;;;6.13;74.08;101195.13;15794774;28;20460;-48
2024/02/13 09:13:55;;;;;;;7.97;1.80;;;;;;;6.97;71.75;101198.13;15795030;28;20128;-48
2024/02/13 09:21:33;;;;;;;0.75;0.68;;;;;;;6.44;71.30;101205.88;15776217;28;20074;-49
2024/02/13 09:29:07;;;;;;;0.32;0.20;;;;;;;6.79;71.61;101209.88;15825086;28;20101;-51
2024/02/13 09:36:43;;;;;;;0.00;0.00;;;;;;;7.99;67.21;101218.22;15843342;28;20048;-50
2024/02/13 09:44:18;;;;;;;0.15;0.15;;;;;;;8.38;65.49;101228.72;15797401;28;20550;-50
2024/02/13 09:51:56;;;;;;;5.95;1.45;;;;;;;7.59;67.55;101238.09;15806054;28;20079;-49
2024/02/13 09:59:30;;;;;;;0.00;0.00;;;;;;;7.36;67.96;101235.41;15796851;28;20098;-49
2024/02/13 10:07:06;;;;;;;0.10;0.10;;;;;;;7.87;66.01;101230.34;15778820;28;20724;-49
2024/02/13 10:14:40;;;;;;;0.05;0.05;;;;;;;8.35;63.73;101252.31;15796513;28;20119;-49
2024/02/13 10:22:18;;;;;;;0.00;0.00;;;;;;;8.94;63.85;101250.47;15793823;28;20106;-47
2024/02/13 10:29:52;;;;;;;0.00;0.00;;;;;;;8.21;63.13;101261.97;15813035;28;20597;-48
2024/02/13 10:37:29;;;;;;;0.50;0.30;;;;;;;8.47;62.67;101277.63;15859249;28;20043;-53
2024/02/13 10:45:05;;;;;;;0.00;0.00;;;;;;;7.84;62.81;101274.34;15861609;28;20127;-49
2024/02/13 10:52:41;;;;;;;0.38;0.38;;;;;;;7.90;63.54;101284.28;15806516;28;20059;-47
2024/02/13 11:00:19;;;;;;;0.55;0.17;;;;;;;8.17;60.98;101276.72;15803884;28;20044;-50
2024/02/13 11:07:56;;;;;;;0.00;0.00;;;;;;;8.55;58.93;101274.03;15801884;28;20040;-46
2024/02/13 11:15:39;;;;;;;0.00;0.00;;;;;;;9.73;56.35;101267.63;15788869;28;20044;-46
2024/02/13 11:23:16;;;;;;;0.00;0.00;;;;;;;10.86;52.76;101261.22;15805207;28;20048;-47
2024/02/13 11:30:49;;;;;;;0.00;0.00;;;;;;;10.61;51.58;101266.28;15826077;28;20040;-49
2024/02/13 11:38:28;;;;;;;0.40;0.40;;;;;;;10.00;53.04;101269.53;15855397;28;20044;-46
2024/02/13 11:46:03;;;;;;;3.00;1.88;;;;;;;10.54;52.74;101268.94;15835157;28;20050;-47
2024/02/13 11:53:38;;;;;;;0.00;0.00;;;;;;;9.58;53.37;101268.50;15862758;28;20129;-51
2024/02/13 12:01:19;;;;;;;0.25;0.25;;;;;;;10.16;53.04;101266.53;15801785;28;20405;-47
2024/02/13 12:08:54;;;;;;;3.35;1.55;;;;;;;10.26;53.12;101262.72;15846591;28;20047;-50
2024/02/13 12:16:28;;;;;;;0.20;0.20;;;;;;;12.09;48.55;101262.81;15845866;28;20071;-49
2024/02/13 12:24:04;;;;;;;0.00;0.00;;;;;;;10.79;49.34;101281.88;15863723;28;20036;-49
2024/02/13 12:31:39;;;;;;;0.00;0.00;;;;;;;10.28;50.62;101274.94;15863272;28;20143;-47
2024/02/13 12:39:20;;;;;;;1.08;0.63;;;;;;;9.49;53.65;101279.53;15856886;28;20133;-48
2024/02/13 12:46:53;;;;;;;0.00;0.00;;;;;;;8.92;53.90;101289.16;15837366;28;20064;-50
2024/02/13 12:54:28;;;;;;;0.00;0.00;;;;;;;9.01;54.92;101281.88;15795368;28;20044;-51
2024/02/13 13:02:03;;;;;;;0.00;0.00;;;;;;;9.61;53.88;101259.28;15800541;28;20135;-49
2024/02/13 13:09:42;;;;;;;6.07;0.52;;;;;;;9.83;53.42;101279.66;15842364;28;20431;-49
2024/02/13 13:17:21;;;;;;;0.08;0.08;;;;;;;10.82;50.56;101276.09;15861286;28;20044;-49
2024/02/13 13:24:57;;;;;;;0.05;0.05;;;;;;;9.91;52.07;101271.50;15843776;28;20122;-48
2024/02/13 13:32:31;;;;;;;0.70;0.15;;;;;;;9.73;52.38;101275.66;15787124;28;20063;-47
2024/02/13 13:40:12;;;;;;;0.00;0.00;;;;;;;9.83;53.02;101285.03;15818609;28;20036;-47
2024/02/13 13:47:47;;;;;;;0.00;0.00;;;;;;;9.31;54.03;101288.00;15831403;28;20040;-51
2024/02/13 16:59:28;;;;;;;0.10;0.10;;;;;;;7.03;60.84;101397.59;15819147;28;20065;-46
2024/02/13 17:07:02;;;;;;;0.88;0.52;;;;;;;7.24;60.77;101416.56;15797626;28;20052;-49
2024/02/13 17:14:37;;;;;;;0.00;0.00;;;;;;;6.90;61.60;101431.00;15799250;28;20522;-48
2024/02/13 19:21:35;;;;;;;1.25;0.43;;;;;;;5.28;68.87;101463.44;15800091;28;20090;-54
2024/02/13 19:29:09;;;;;;;2.65;0.35;;;;;;;4.94;69.23;101466.88;15826975;28;20480;-48
2024/02/13 19:36:45;;;;;;;0.57;0.57;;;;;;;4.79;70.03;101466.59;15857768;28;20097;-47
2024/02/13 19:44:21;;;;;;;0.75;0.55;;;;;;;4.58;71.73;101461.63;15863825;28;20680;-48
2024/02/13 19:51:57;;;;;;;0.00;0.00;;;;;;;4.77;71.44;101470.41;15803677;28;20051;-50
2024/02/13 19:59:31;;;;;;;0.00;0.00;;;;;;;4.75;71.24;101470.56;15802178;28;20483;-46
2024/02/13 20:07:06;;;;;;;0.00;0.00;;;;;;;4.92;70.02;101474.19;15802307;28;20097;-46
2024/02/13 20:14:40;;;;;;;0.00;0.00;;;;;;;4.78;70.29;101472.91;15802207;28;20036;-49
2024/02/13 20:22:18;;;;;;;0.10;0.10;;;;;;;4.74;69.72;101470.72;15824086;28;20420;-47
2024/02/13 20:29:52;;;;;;;0.00;0.00;;;;;;;4.59;70.47;101468.59;15841500;28;20143;-51
2024/02/13 20:37:27;;;;;;;0.13;0.13;;;;;;;4.31;71.59;101470.50;15835125;28;20177;-46
2024/02/13 20:45:01;;;;;;;0.20;0.20;;;;;;;4.26;70.25;101469.28;15858353;28;20047;-49
2024/02/13 20:52:38;;;;;;;0.00;0.00;;;;;;;3.88;73.00;101452.63;15800613;28;20700;-48
2024/02/13 21:00:13;;;;;;;2.42;0.75;;;;;;;4.29;72.32;101469.84;15795241;28;20044;-46
2024/02/13 21:07:48;;;;;;;0.20;0.20;;;;;;;4.12;72.59;101469.81;15798117;28;20098;-47
2024/02/13 21:15:23;;;;;;;0.15;0.15;;;;;;;4.16;71.22;101463.22;15798380;28;20052;-46
2024/02/13 21:30:50;;;;;;;;;;;;;;;3.82;71.04;101458.53;15821463;28;20039;-46
2024/02/13 21:38:25;;;;;;;0.00;0.00;;;;;;;3.66;71.67;101464.47;15842964;28;19945;-50
2024/02/13 21:45:59;;;;;;;0.20;0.20;;;;;;;3.41;72.59;101455.38;15844497;28;20048;-50
2024/02/13 21:53:34;;;;;;;0.43;0.40;;;;;;;3.16;75.99;101461.31;15794403;28;20044;-53
2024/02/13 22:01:08;;;;;;;0.63;0.63;;;;;;;3.41;75.34;101468.66;15867979;22;20050;-52
2024/02/13 22:08:43;;;;;;;;;;;;;;;3.25;75.92;101466.59;15895827;28;20138;-52
2024/02/13 22:16:31;;;;;;;0.47;0.47;;;;;;;3.53;75.14;101474.59;15833596;28;19920;-51
2024/02/13 22:24:06;;;;;;;0.28;0.28;;;;;;;3.46;74.53;101492.09;15844614;28;20468;-49
2024/02/13 22:31:40;;;;;;;0.05;0.05;;;;;;;3.37;74.23;101482.34;15854658;28;20467;-51
2024/02/13 22:39:15;;;;;;;1.25;0.95;;;;;;;3.34;73.98;101475.50;15871041;28;20093;-48
2024/02/13 22:46:51;;;;;;;1.67;0.68;;;;;;;3.32;74.05;101464.22;15869606;28;20046;-51
2024/02/13 22:54:30;;;;;;;1.08;0.47;;;;;;;3.60;74.31;101481.00;15854459;28;20062;-54
2024/02/13 23:02:05;;;;;;;0.47;0.28;;;;;;;3.56;73.90;101485.75;15869083;27;20039;-50
2024/02/13 23:09:41;;;;;;;0.00;0.00;;;;;;;3.73;73.43;101478.84;15909184;27;20504;-51
2024/02/13 23:17:17;;;;;;;0.00;0.00;;;;;;;3.71;73.07;101470.19;15912240;27;20096;-50
2024/02/13 23:25:02;;;;;;;0.20;0.20;;;;;;;3.69;73.67;101471.34;15931838;27;20122;-51
2024/02/13 23:32:36;;;;;;;0.00;0.00;;;;;;;3.62;73.49;101465.75;15888985;27;20090;-53
2024/02/13 23:40:16;;;;;;;0.05;0.05;;;;;;;3.62;74.17;101467.59;15851598;28;20032;-51
2024/02/13 23:47:55;;;;;;;0.00;0.00;;;;;;;3.77;73.34;101458.13;15853208;28;20109;-49
2024/02/13 23:55:30;;;;;;;0.10;0.10;;;;;;;3.38;74.51;101444.22;15851883;28;20059;-52
